createdAt,value
2023-03-31T00:00:47.479Z,0.00
2023-03-31T00:01:48.358Z,0.00
2023-03-31T00:02:49.310Z,0.00
2023-03-31T00:03:50.306Z,0.00
2023-03-31T00:04:50.760Z,0.00
2023-03-31T00:05:51.608Z,0.00
2023-03-31T00:06:52.491Z,0.00
2023-03-31T00:07:53.367Z,0.00
2023-03-31T00:08:54.259Z,0.00
2023-03-31T00:10:04.016Z,0.00
2023-03-31T00:10:56.898Z,0.00
2023-03-31T00:11:56.775Z,0.00
2023-03-31T00:12:57.650Z,0.00
2023-03-31T00:13:58.542Z,0.00
2023-03-31T00:14:59.447Z,0.00
2023-03-31T00:16:00.370Z,0.00
2023-03-31T00:17:01.337Z,0.00
2023-03-31T00:18:01.841Z,0.00
2023-03-31T00:19:02.700Z,0.00
2023-03-31T00:20:03.596Z,0.00
2023-03-31T00:21:04.452Z,0.00
2023-03-31T00:22:05.469Z,0.00
2023-03-31T00:23:05.824Z,0.00
2023-03-31T00:24:06.718Z,0.00
2023-03-31T00:25:07.598Z,0.00
2023-03-31T00:26:08.699Z,0.00
2023-03-31T00:27:09.048Z,0.00
2023-03-31T00:28:09.929Z,0.00
2023-03-31T00:29:10.813Z,0.00
2023-03-31T00:30:11.692Z,0.00
2023-03-31T00:31:12.570Z,0.00
2023-03-31T00:32:13.519Z,0.00
2023-03-31T00:33:14.345Z,0.00
2023-03-31T00:34:15.234Z,0.00
2023-03-31T00:35:16.139Z,0.00
2023-03-31T00:36:17.049Z,0.00
2023-03-31T00:37:17.896Z,0.00
2023-03-31T00:38:18.775Z,0.00
2023-03-31T00:39:19.666Z,0.00
2023-03-31T00:40:20.542Z,0.00
2023-03-31T00:41:21.429Z,0.00
2023-03-31T00:42:22.304Z,0.00
2023-03-31T00:43:23.191Z,0.00
2023-03-31T00:44:24.092Z,0.00
2023-03-31T00:45:25.125Z,0.00
2023-03-31T00:46:25.617Z,0.00
2023-03-31T00:47:26.028Z,0.00
2023-03-31T00:48:26.902Z,0.00
2023-03-31T00:49:27.792Z,0.00
2023-03-31T00:50:28.685Z,0.00
2023-03-31T00:51:29.557Z,0.00
2023-03-31T00:52:30.419Z,0.00
2023-03-31T00:53:31.300Z,0.00
2023-03-31T00:54:32.180Z,0.00
2023-03-31T00:55:33.058Z,0.00
2023-03-31T00:56:33.930Z,0.00
2023-03-31T00:57:34.811Z,0.00
2023-03-31T00:58:35.684Z,0.00
2023-03-31T00:59:36.580Z,0.00
2023-03-31T01:00:37.461Z,0.00
2023-03-31T01:01:38.415Z,0.00
2023-03-31T01:02:39.287Z,0.00
2023-03-31T01:03:40.169Z,0.00
2023-03-31T01:04:41.023Z,0.00
2023-03-31T01:05:41.918Z,0.00
2023-03-31T01:06:42.768Z,0.00
2023-03-31T01:07:43.648Z,0.00
2023-03-31T01:08:44.524Z,0.00
2023-03-31T01:09:45.416Z,0.00
2023-03-31T01:10:46.285Z,0.00
2023-03-31T01:11:47.169Z,0.00
2023-03-31T01:12:48.038Z,0.00
2023-03-31T01:13:48.917Z,0.00
2023-03-31T01:14:49.810Z,0.00
2023-03-31T01:15:50.687Z,0.00
2023-03-31T01:16:51.647Z,0.00
2023-03-31T01:17:52.294Z,0.00
2023-03-31T01:18:52.665Z,0.00
2023-03-31T01:19:53.552Z,0.00
2023-03-31T01:20:54.444Z,0.00
2023-03-31T01:21:55.309Z,0.00
2023-03-31T01:22:56.187Z,0.00
2023-03-31T01:23:57.068Z,0.00
2023-03-31T01:24:57.961Z,0.00
2023-03-31T01:25:58.840Z,0.00
2023-03-31T01:26:59.713Z,0.00
2023-03-31T01:28:00.593Z,0.00
2023-03-31T01:29:01.482Z,0.00
2023-03-31T01:30:02.366Z,0.00
2023-03-31T01:31:03.364Z,0.00
2023-03-31T01:32:04.231Z,0.00
2023-03-31T01:33:05.135Z,0.00
2023-03-31T01:34:05.982Z,0.00
2023-03-31T01:35:06.885Z,0.00
2023-03-31T01:36:08.054Z,0.00
2023-03-31T01:37:08.718Z,0.00
2023-03-31T01:38:09.597Z,0.00
2023-03-31T01:39:10.474Z,0.00
2023-03-31T01:40:11.364Z,0.00
2023-03-31T01:41:12.249Z,0.00
2023-03-31T01:42:13.122Z,0.00
2023-03-31T01:43:13.991Z,0.00
2023-03-31T01:44:14.874Z,0.00
2023-03-31T01:45:15.768Z,0.00
2023-03-31T01:46:16.680Z,0.00
2023-03-31T01:47:17.535Z,0.00
2023-03-31T01:48:18.434Z,0.00
2023-03-31T01:49:19.280Z,0.00
2023-03-31T01:50:20.172Z,0.00
2023-03-31T01:51:21.123Z,0.00
2023-03-31T01:52:22.001Z,0.00
2023-03-31T01:53:22.834Z,0.00
2023-03-31T01:54:23.713Z,0.00
2023-03-31T01:55:24.622Z,0.00
2023-03-31T01:56:25.468Z,0.00
2023-03-31T01:57:26.386Z,0.00
2023-03-31T01:58:27.234Z,0.00
2023-03-31T01:59:28.104Z,0.00
2023-03-31T02:00:28.996Z,0.00
2023-03-31T02:01:31.126Z,0.00
2023-03-31T02:02:30.786Z,0.00
2023-03-31T02:03:31.770Z,0.00
2023-03-31T02:04:32.606Z,0.00
2023-03-31T02:05:33.497Z,0.00
2023-03-31T02:06:34.391Z,0.00
2023-03-31T02:07:35.250Z,0.00
2023-03-31T02:08:36.143Z,0.00
2023-03-31T02:09:37.010Z,0.00
2023-03-31T02:10:37.894Z,0.00
2023-03-31T02:11:38.765Z,0.00
2023-03-31T02:12:39.646Z,0.00
2023-03-31T02:13:40.536Z,0.00
2023-03-31T02:14:41.407Z,0.00
2023-03-31T02:15:42.310Z,0.00
2023-03-31T02:16:43.276Z,0.00
2023-03-31T02:17:44.154Z,0.00
2023-03-31T02:18:44.995Z,0.00
2023-03-31T02:19:45.868Z,0.00
2023-03-31T02:20:46.756Z,0.00
2023-03-31T02:21:47.658Z,0.00
2023-03-31T02:22:48.527Z,0.00
2023-03-31T02:23:49.397Z,0.00
2023-03-31T02:24:50.268Z,0.00
2023-03-31T02:25:51.161Z,0.00
2023-03-31T02:26:52.046Z,0.00
2023-03-31T02:27:52.932Z,0.00
2023-03-31T02:28:53.806Z,0.00
2023-03-31T02:29:54.683Z,0.00
2023-03-31T02:30:55.576Z,0.00
2023-03-31T02:31:56.476Z,0.00
2023-03-31T02:32:57.373Z,0.00
2023-03-31T02:33:58.209Z,0.00
2023-03-31T02:34:59.089Z,0.00
2023-03-31T02:35:59.679Z,0.00
2023-03-31T02:37:00.578Z,0.00
2023-03-31T02:38:01.439Z,0.00
2023-03-31T02:39:02.307Z,0.00
2023-03-31T02:40:03.187Z,0.00
2023-03-31T02:41:04.077Z,0.00
2023-03-31T02:42:04.958Z,0.00
2023-03-31T02:43:05.836Z,0.00
2023-03-31T02:44:06.723Z,0.00
2023-03-31T02:45:07.601Z,0.00
2023-03-31T02:46:09.019Z,0.00
2023-03-31T02:47:09.125Z,0.00
2023-03-31T02:48:09.997Z,0.00
2023-03-31T02:49:10.879Z,0.00
2023-03-31T02:50:11.768Z,0.00
2023-03-31T02:51:12.643Z,0.00
2023-03-31T02:52:13.543Z,0.00
2023-03-31T02:53:14.402Z,0.00
2023-03-31T02:54:15.274Z,0.00
2023-03-31T02:55:16.183Z,0.00
2023-03-31T02:56:17.039Z,0.00
2023-03-31T02:57:17.939Z,0.00
2023-03-31T02:58:18.803Z,0.00
2023-03-31T02:59:19.683Z,0.00
2023-03-31T03:00:20.578Z,0.00
2023-03-31T03:01:21.491Z,0.00
2023-03-31T03:02:22.416Z,0.00
2023-03-31T03:03:23.307Z,0.00
2023-03-31T03:04:24.145Z,0.00
2023-03-31T03:05:25.036Z,0.00
2023-03-31T03:06:25.917Z,0.00
2023-03-31T03:07:26.828Z,0.00
2023-03-31T03:08:27.696Z,0.00
2023-03-31T03:09:28.564Z,0.00
2023-03-31T03:10:29.474Z,0.00
2023-03-31T03:11:30.332Z,0.00
2023-03-31T03:12:31.211Z,0.00
2023-03-31T03:13:32.092Z,0.00
2023-03-31T03:14:32.975Z,0.00
2023-03-31T03:15:33.861Z,0.00
2023-03-31T03:16:34.754Z,0.00
2023-03-31T03:17:35.644Z,0.00
2023-03-31T03:18:36.544Z,0.00
2023-03-31T03:19:37.416Z,0.00
2023-03-31T03:20:38.303Z,0.00
2023-03-31T03:21:39.178Z,0.00
2023-03-31T03:22:40.078Z,0.00
2023-03-31T03:23:40.938Z,0.00
2023-03-31T03:24:41.825Z,0.00
2023-03-31T03:25:42.712Z,0.00
2023-03-31T03:26:43.595Z,0.00
2023-03-31T03:27:44.463Z,0.00
2023-03-31T03:28:45.352Z,0.00
2023-03-31T03:29:46.217Z,0.00
2023-03-31T03:30:47.138Z,0.00
2023-03-31T03:31:47.985Z,0.00
2023-03-31T03:32:48.908Z,0.00
2023-03-31T03:33:49.731Z,0.00
2023-03-31T03:34:50.611Z,0.00
2023-03-31T03:35:51.545Z,0.00
2023-03-31T03:36:52.375Z,0.00
2023-03-31T03:37:53.270Z,0.00
2023-03-31T03:38:54.130Z,0.00
2023-03-31T03:39:55.020Z,0.00
2023-03-31T03:40:55.900Z,0.00
2023-03-31T03:41:56.775Z,0.00
2023-03-31T03:42:57.651Z,0.00
2023-03-31T03:43:58.524Z,0.00
2023-03-31T03:44:59.438Z,0.00
2023-03-31T03:46:00.305Z,0.00
2023-03-31T03:47:01.171Z,0.00
2023-03-31T03:48:02.132Z,0.00
2023-03-31T03:49:03.029Z,0.00
2023-03-31T03:50:03.909Z,0.00
2023-03-31T03:51:04.810Z,0.00
2023-03-31T03:52:05.725Z,0.00
2023-03-31T03:53:06.593Z,0.00
2023-03-31T03:54:07.441Z,0.00
2023-03-31T03:55:08.321Z,0.00
2023-03-31T03:56:09.208Z,0.00
2023-03-31T03:57:10.280Z,0.00
2023-03-31T03:58:10.679Z,0.00
2023-03-31T03:59:11.561Z,0.00
2023-03-31T04:00:12.728Z,0.00
2023-03-31T04:01:13.180Z,0.00
2023-03-31T04:02:14.136Z,0.00
2023-03-31T04:03:15.189Z,0.00
2023-03-31T04:04:15.599Z,0.00
2023-03-31T04:05:16.515Z,0.00
2023-03-31T04:06:17.364Z,0.00
2023-03-31T04:07:18.248Z,0.00
2023-03-31T04:08:19.148Z,0.00
2023-03-31T04:09:19.998Z,0.00
2023-03-31T04:10:20.908Z,0.00
2023-03-31T04:11:21.795Z,0.00
2023-03-31T04:12:22.665Z,0.00
2023-03-31T04:13:23.561Z,0.00
2023-03-31T04:14:24.422Z,0.00
2023-03-31T04:15:25.315Z,0.00
2023-03-31T04:16:26.204Z,0.00
2023-03-31T04:17:27.140Z,0.00
2023-03-31T04:18:28.007Z,0.00
2023-03-31T04:19:28.873Z,0.00
2023-03-31T04:20:29.742Z,0.00
2023-03-31T04:21:30.643Z,0.00
2023-03-31T04:22:31.523Z,0.00
2023-03-31T04:23:32.428Z,0.00
2023-03-31T04:24:33.620Z,0.00
2023-03-31T04:25:33.998Z,0.00
2023-03-31T04:26:34.882Z,0.00
2023-03-31T04:27:35.760Z,0.00
2023-03-31T04:28:36.644Z,0.00
2023-03-31T04:29:37.519Z,0.00
2023-03-31T04:30:38.413Z,0.00
2023-03-31T04:31:39.319Z,0.00
2023-03-31T04:32:40.184Z,0.00
2023-03-31T04:33:41.058Z,0.00
2023-03-31T04:34:41.937Z,0.00
2023-03-31T04:35:42.979Z,0.00
2023-03-31T04:36:43.804Z,0.00
2023-03-31T04:37:44.680Z,0.00
2023-03-31T04:38:45.585Z,0.00
2023-03-31T04:39:46.378Z,0.00
2023-03-31T04:40:47.261Z,0.00
2023-03-31T04:41:48.098Z,0.00
2023-03-31T04:42:48.926Z,0.00
2023-03-31T04:43:49.815Z,0.00
2023-03-31T04:44:50.678Z,0.00
2023-03-31T04:45:51.578Z,0.00
2023-03-31T04:46:52.372Z,0.00
2023-03-31T04:47:53.297Z,0.00
2023-03-31T04:48:54.194Z,0.00
2023-03-31T04:49:55.033Z,0.00
2023-03-31T04:50:55.861Z,0.00
2023-03-31T04:51:56.691Z,0.00
2023-03-31T04:52:57.517Z,0.00
2023-03-31T04:53:58.372Z,0.00
2023-03-31T04:54:59.172Z,0.00
2023-03-31T04:55:59.999Z,0.00
2023-03-31T04:57:00.943Z,0.00
2023-03-31T04:58:01.724Z,0.00
2023-03-31T04:59:02.682Z,0.00
2023-03-31T05:00:03.466Z,0.00
2023-03-31T05:01:04.289Z,0.00
2023-03-31T05:02:05.136Z,0.00
2023-03-31T05:03:06.035Z,0.00
2023-03-31T05:04:06.934Z,0.00
2023-03-31T05:05:07.722Z,0.00
2023-03-31T05:06:09.022Z,0.00
2023-03-31T05:07:09.464Z,0.00
2023-03-31T05:08:10.287Z,0.00
2023-03-31T05:09:11.145Z,0.00
2023-03-31T05:10:11.945Z,0.00
2023-03-31T05:11:12.780Z,0.00
2023-03-31T05:12:13.598Z,0.00
2023-03-31T05:13:14.417Z,0.00
2023-03-31T05:14:15.248Z,0.00
2023-03-31T05:15:16.062Z,0.00
2023-03-31T05:16:16.926Z,0.00
2023-03-31T05:17:17.734Z,0.00
2023-03-31T05:18:18.563Z,0.00
2023-03-31T05:19:19.390Z,0.00
2023-03-31T05:20:20.213Z,0.00
2023-03-31T05:21:21.044Z,0.00
2023-03-31T05:22:21.863Z,0.00
2023-03-31T05:23:22.693Z,0.00
2023-03-31T05:24:23.529Z,0.00
2023-03-31T05:25:24.347Z,0.00
2023-03-31T05:26:25.176Z,0.00
2023-03-31T05:27:26.041Z,0.00
2023-03-31T05:28:26.844Z,0.00
2023-03-31T05:29:27.661Z,0.00
2023-03-31T05:30:28.492Z,0.00
2023-03-31T05:31:29.333Z,0.00
2023-03-31T05:32:30.151Z,0.00
2023-03-31T05:33:30.968Z,0.00
2023-03-31T05:34:31.811Z,0.00
2023-03-31T05:35:32.679Z,0.00
2023-03-31T05:36:33.481Z,0.00
2023-03-31T05:37:34.308Z,0.00
2023-03-31T05:38:35.124Z,0.00
2023-03-31T05:39:35.976Z,0.00
2023-03-31T05:40:36.780Z,0.00
2023-03-31T05:41:37.612Z,0.00
2023-03-31T05:42:38.436Z,0.00
2023-03-31T05:43:39.275Z,0.00
2023-03-31T05:44:40.083Z,5.62
2023-03-31T05:45:40.896Z,5.62
2023-03-31T05:46:41.752Z,5.62
2023-03-31T05:47:42.578Z,5.62
2023-03-31T05:48:43.373Z,5.62
2023-03-31T05:49:44.191Z,0.00
2023-03-31T05:50:45.023Z,0.00
2023-03-31T05:51:45.848Z,0.00
2023-03-31T05:52:46.675Z,0.00
2023-03-31T05:53:47.489Z,0.00
2023-03-31T05:54:48.496Z,0.00
2023-03-31T05:55:49.267Z,0.00
2023-03-31T05:56:50.132Z,0.00
2023-03-31T05:57:50.930Z,0.00
2023-03-31T05:58:51.746Z,5.62
2023-03-31T05:59:52.617Z,5.62
2023-03-31T06:00:53.417Z,5.62
2023-03-31T06:01:54.365Z,5.62
2023-03-31T06:02:55.275Z,5.62
2023-03-31T06:03:56.181Z,5.62
2023-03-31T06:04:56.954Z,5.62
2023-03-31T06:05:57.796Z,5.62
2023-03-31T06:06:58.637Z,5.62
2023-03-31T06:07:59.451Z,5.62
2023-03-31T06:09:00.278Z,5.62
2023-03-31T06:10:01.121Z,5.62
2023-03-31T06:11:01.926Z,5.62
2023-03-31T06:12:02.980Z,5.62
2023-03-31T06:13:03.259Z,5.62
2023-03-31T06:14:04.090Z,5.62
2023-03-31T06:15:04.920Z,5.62
2023-03-31T06:16:05.826Z,5.62
2023-03-31T06:17:07.375Z,5.62
2023-03-31T06:18:07.492Z,5.62
2023-03-31T06:19:08.299Z,5.62
2023-03-31T06:20:23.950Z,11.25
2023-03-31T06:21:10.825Z,11.25
2023-03-31T06:22:10.659Z,11.25
2023-03-31T06:23:11.485Z,11.25
2023-03-31T06:24:12.297Z,11.25
2023-03-31T06:25:13.159Z,16.88
2023-03-31T06:26:13.941Z,16.88
2023-03-31T06:27:14.779Z,16.88
2023-03-31T06:28:15.597Z,11.25
2023-03-31T06:29:16.423Z,11.25
2023-03-31T06:30:17.253Z,11.25
2023-03-31T06:31:18.115Z,11.25
2023-03-31T06:32:18.909Z,5.62
2023-03-31T06:33:19.732Z,5.62
2023-03-31T06:34:21.610Z,5.62
2023-03-31T06:35:21.497Z,11.25
2023-03-31T06:36:22.317Z,11.25
2023-03-31T06:37:23.153Z,11.25
2023-03-31T06:38:23.968Z,11.25
2023-03-31T06:39:27.614Z,5.62
2023-03-31T06:40:25.490Z,5.62
2023-03-31T06:41:26.280Z,5.62
2023-03-31T06:42:27.114Z,0.00
2023-03-31T06:43:27.938Z,0.00
2023-03-31T06:44:28.773Z,0.00
2023-03-31T06:45:29.582Z,0.00
2023-03-31T06:46:30.410Z,0.00
2023-03-31T06:47:31.280Z,0.00
2023-03-31T06:48:32.116Z,0.00
2023-03-31T06:49:32.928Z,0.00
2023-03-31T06:50:33.755Z,0.00
2023-03-31T06:51:34.591Z,0.00
2023-03-31T06:52:35.420Z,0.00
2023-03-31T06:53:36.246Z,0.00
2023-03-31T06:54:37.056Z,0.00
2023-03-31T06:55:37.909Z,0.00
2023-03-31T06:56:38.705Z,0.00
2023-03-31T06:57:39.573Z,0.00
2023-03-31T06:58:40.402Z,5.62
2023-03-31T06:59:41.225Z,5.62
2023-03-31T07:00:42.053Z,5.62
2023-03-31T07:01:43.049Z,11.25
2023-03-31T07:02:43.555Z,16.88
2023-03-31T07:03:43.973Z,11.25
2023-03-31T07:04:44.767Z,11.25
2023-03-31T07:05:45.589Z,16.88
2023-03-31T07:06:46.407Z,28.12
2023-03-31T07:07:47.246Z,33.75
2023-03-31T07:08:48.063Z,112.50
2023-03-31T07:09:48.897Z,275.62
2023-03-31T07:10:49.781Z,286.88
2023-03-31T07:11:50.534Z,286.88
2023-03-31T07:12:51.376Z,303.75
2023-03-31T07:13:52.197Z,78.75
2023-03-31T07:14:53.018Z,45.00
2023-03-31T07:15:53.919Z,236.25
2023-03-31T07:16:54.785Z,50.62
2023-03-31T07:17:55.671Z,22.50
2023-03-31T07:18:56.465Z,16.88
2023-03-31T07:19:57.292Z,16.88
2023-03-31T07:20:58.127Z,140.62
2023-03-31T07:21:58.954Z,22.50
2023-03-31T07:22:59.845Z,22.50
2023-03-31T07:24:00.661Z,16.88
2023-03-31T07:25:01.456Z,16.88
2023-03-31T07:26:02.322Z,16.88
2023-03-31T07:27:03.099Z,16.88
2023-03-31T07:28:03.936Z,16.88
2023-03-31T07:29:04.774Z,45.00
2023-03-31T07:30:05.586Z,16.88
2023-03-31T07:31:06.616Z,16.88
2023-03-31T07:32:07.161Z,16.88
2023-03-31T07:33:07.992Z,11.25
2023-03-31T07:34:08.795Z,11.25
2023-03-31T07:35:09.625Z,11.25
2023-03-31T07:36:13.407Z,39.38
2023-03-31T07:37:11.046Z,16.88
2023-03-31T07:38:11.893Z,39.38
2023-03-31T07:39:12.716Z,22.50
2023-03-31T07:40:13.540Z,11.25
2023-03-31T07:41:14.409Z,56.25
2023-03-31T07:42:15.196Z,5.62
2023-03-31T07:43:16.032Z,5.62
2023-03-31T07:44:16.858Z,5.62
2023-03-31T07:45:17.698Z,5.62
2023-03-31T07:46:18.544Z,5.62
2023-03-31T07:47:19.350Z,0.00
2023-03-31T07:48:20.179Z,0.00
2023-03-31T07:49:21.015Z,0.00
2023-03-31T07:50:21.852Z,0.00
2023-03-31T07:51:22.684Z,5.62
2023-03-31T07:52:23.518Z,5.62
2023-03-31T07:53:24.351Z,5.62
2023-03-31T07:54:25.181Z,5.62
2023-03-31T07:55:26.004Z,5.62
2023-03-31T07:56:26.868Z,5.62
2023-03-31T07:57:27.704Z,5.62
2023-03-31T07:58:28.538Z,5.62
2023-03-31T07:59:29.368Z,5.62
2023-03-31T08:00:30.194Z,5.62
2023-03-31T08:01:31.021Z,0.00
2023-03-31T08:02:32.036Z,0.00
2023-03-31T08:03:32.889Z,0.00
2023-03-31T08:04:33.813Z,0.00
2023-03-31T08:05:34.211Z,0.00
2023-03-31T08:06:35.064Z,5.62
2023-03-31T08:07:35.842Z,5.62
2023-03-31T08:08:36.698Z,5.62
2023-03-31T08:09:37.527Z,11.25
2023-03-31T08:10:38.344Z,5.62
2023-03-31T08:11:39.189Z,11.25
2023-03-31T08:12:40.006Z,5.62
2023-03-31T08:13:40.850Z,5.62
2023-03-31T08:14:41.949Z,5.62
2023-03-31T08:15:42.280Z,5.62
2023-03-31T08:16:43.223Z,5.62
2023-03-31T08:17:44.106Z,5.62
2023-03-31T08:18:44.915Z,5.62
2023-03-31T08:19:45.740Z,5.62
2023-03-31T08:20:49.044Z,5.62
2023-03-31T08:21:47.278Z,5.62
2023-03-31T08:22:48.100Z,0.00
2023-03-31T08:23:48.942Z,0.00
2023-03-31T08:24:49.768Z,0.00
2023-03-31T08:25:50.589Z,0.00
2023-03-31T08:26:51.445Z,5.62
2023-03-31T08:27:52.245Z,5.62
2023-03-31T08:28:53.078Z,11.25
2023-03-31T08:29:53.904Z,16.88
2023-03-31T08:30:54.725Z,16.88
2023-03-31T08:31:55.667Z,28.12
2023-03-31T08:32:56.522Z,28.12
2023-03-31T08:33:57.360Z,22.50
2023-03-31T08:34:58.170Z,16.88
2023-03-31T08:35:59.035Z,16.88
2023-03-31T08:36:59.931Z,16.88
2023-03-31T08:38:00.735Z,22.50
2023-03-31T08:39:01.589Z,28.12
2023-03-31T08:40:02.379Z,33.75
2023-03-31T08:41:03.194Z,33.75
2023-03-31T08:42:04.046Z,39.38
2023-03-31T08:43:04.845Z,33.75
2023-03-31T08:44:05.694Z,39.38
2023-03-31T08:45:06.503Z,45.00
2023-03-31T08:46:07.517Z,45.00
2023-03-31T08:47:08.054Z,33.75
2023-03-31T08:48:08.897Z,33.75
2023-03-31T08:49:09.712Z,28.12
2023-03-31T08:50:10.537Z,28.12
2023-03-31T08:51:11.352Z,22.50
2023-03-31T08:52:12.179Z,16.88
2023-03-31T08:53:13.009Z,16.88
2023-03-31T08:54:15.129Z,16.88
2023-03-31T08:55:14.634Z,16.88
2023-03-31T08:56:15.459Z,11.25
2023-03-31T08:57:16.371Z,11.25
2023-03-31T08:58:17.169Z,11.25
2023-03-31T08:59:17.984Z,11.25
2023-03-31T09:00:18.839Z,5.62
2023-03-31T09:01:19.749Z,5.62
2023-03-31T09:02:20.655Z,5.62
2023-03-31T09:03:21.523Z,5.62
2023-03-31T09:04:22.503Z,0.00
2023-03-31T09:05:22.891Z,0.00
2023-03-31T09:06:23.712Z,0.00
2023-03-31T09:07:24.540Z,0.00
2023-03-31T09:08:25.372Z,0.00
2023-03-31T09:09:26.821Z,0.00
2023-03-31T09:10:26.698Z,0.00
2023-03-31T09:11:27.517Z,0.00
2023-03-31T09:12:28.387Z,0.00
2023-03-31T09:13:29.173Z,0.00
2023-03-31T09:14:30.010Z,0.00
2023-03-31T09:15:30.829Z,0.00
2023-03-31T09:16:31.697Z,0.00
2023-03-31T09:17:32.568Z,0.00
2023-03-31T09:18:33.372Z,0.00
2023-03-31T09:19:34.204Z,0.00
2023-03-31T09:20:35.021Z,0.00
2023-03-31T09:21:35.849Z,0.00
2023-03-31T09:22:36.702Z,0.00
2023-03-31T09:23:37.529Z,0.00
2023-03-31T09:24:38.376Z,0.00
2023-03-31T09:25:39.206Z,0.00
2023-03-31T09:26:40.037Z,0.00
2023-03-31T09:27:40.897Z,0.00
2023-03-31T09:28:41.680Z,0.00
2023-03-31T09:29:42.541Z,0.00
2023-03-31T09:30:43.350Z,5.62
2023-03-31T09:31:44.218Z,5.62
2023-03-31T09:32:45.037Z,5.62
2023-03-31T09:33:45.853Z,5.62
2023-03-31T09:34:46.687Z,5.62
2023-03-31T09:35:49.303Z,5.62
2023-03-31T09:36:48.385Z,5.62
2023-03-31T09:37:49.205Z,5.62
2023-03-31T09:38:50.037Z,5.62
2023-03-31T09:39:50.860Z,5.62
2023-03-31T09:40:51.688Z,5.62
2023-03-31T09:41:52.526Z,5.62
2023-03-31T09:42:53.373Z,5.62
2023-03-31T09:43:54.184Z,5.62
2023-03-31T09:44:54.737Z,5.62
2023-03-31T09:46:08.680Z,5.62
2023-03-31T09:46:57.333Z,11.25
2023-03-31T09:47:57.147Z,11.25
2023-03-31T09:48:58.026Z,5.62
2023-03-31T09:49:58.856Z,5.62
2023-03-31T09:50:59.699Z,5.62
2023-03-31T09:52:00.503Z,5.62
2023-03-31T09:53:01.333Z,5.62
2023-03-31T09:54:02.146Z,5.62
2023-03-31T09:55:03.002Z,5.62
2023-03-31T09:56:04.197Z,0.00
2023-03-31T09:57:04.784Z,0.00
2023-03-31T09:58:05.628Z,0.00
2023-03-31T09:59:06.441Z,0.00
2023-03-31T10:00:07.274Z,0.00
2023-03-31T10:01:08.326Z,0.00
2023-03-31T10:02:08.778Z,0.00
2023-03-31T10:03:09.618Z,0.00
2023-03-31T10:04:10.450Z,0.00
2023-03-31T10:05:11.259Z,0.00
2023-03-31T10:06:12.076Z,0.00
2023-03-31T10:07:12.917Z,0.00
2023-03-31T10:08:13.732Z,0.00
2023-03-31T10:09:14.567Z,0.00
2023-03-31T10:10:15.406Z,0.00
2023-03-31T10:11:16.244Z,0.00
2023-03-31T10:12:17.039Z,0.00
2023-03-31T10:13:17.893Z,0.00
2023-03-31T10:14:18.682Z,0.00
2023-03-31T10:15:19.554Z,0.00
2023-03-31T10:16:20.405Z,0.00
2023-03-31T10:17:21.184Z,0.00
2023-03-31T10:18:22.090Z,5.62
2023-03-31T10:19:22.980Z,5.62
2023-03-31T10:20:23.810Z,5.62
2023-03-31T10:21:24.639Z,5.62
2023-03-31T10:22:25.445Z,5.62
2023-03-31T10:23:26.282Z,5.62
2023-03-31T10:24:27.096Z,5.62
2023-03-31T10:25:27.929Z,5.62
2023-03-31T10:26:28.741Z,5.62
2023-03-31T10:27:29.568Z,5.62
2023-03-31T10:28:30.439Z,5.62
2023-03-31T10:29:31.331Z,11.25
2023-03-31T10:30:32.182Z,11.25
2023-03-31T10:31:33.059Z,5.62
2023-03-31T10:32:33.928Z,5.62
2023-03-31T10:33:34.759Z,5.62
2023-03-31T10:34:35.672Z,5.62
2023-03-31T10:35:36.537Z,5.62
2023-03-31T10:36:37.336Z,5.62
2023-03-31T10:37:38.153Z,5.62
2023-03-31T10:38:38.980Z,11.25
2023-03-31T10:39:39.806Z,11.25
2023-03-31T10:40:40.661Z,11.25
2023-03-31T10:41:41.460Z,16.88
2023-03-31T10:42:42.278Z,16.88
2023-03-31T10:43:43.217Z,22.50
2023-03-31T10:44:43.989Z,22.50
2023-03-31T10:45:44.833Z,22.50
2023-03-31T10:46:45.699Z,16.88
2023-03-31T10:47:46.540Z,22.50
2023-03-31T10:48:47.325Z,22.50
2023-03-31T10:49:48.139Z,16.88
2023-03-31T10:50:48.966Z,16.88
2023-03-31T10:51:49.793Z,16.88
2023-03-31T10:52:50.609Z,16.88
2023-03-31T10:53:51.444Z,16.88
2023-03-31T10:54:52.258Z,16.88
2023-03-31T10:55:53.102Z,16.88
2023-03-31T10:56:54.349Z,16.88
2023-03-31T10:57:54.795Z,16.88
2023-03-31T10:59:04.566Z,16.88
2023-03-31T10:59:57.336Z,16.88
2023-03-31T11:00:57.165Z,16.88
2023-03-31T11:02:00.315Z,16.88
2023-03-31T11:02:59.185Z,11.25
2023-03-31T11:03:59.646Z,11.25
2023-03-31T11:05:00.026Z,11.25
2023-03-31T11:06:00.870Z,11.25
2023-03-31T11:07:01.918Z,5.62
2023-03-31T11:08:02.696Z,5.62
2023-03-31T11:09:02.966Z,5.62
2023-03-31T11:10:03.785Z,5.62
2023-03-31T11:11:04.800Z,5.62
2023-03-31T11:12:05.286Z,5.62
2023-03-31T11:13:06.103Z,5.62
2023-03-31T11:14:06.960Z,5.62
2023-03-31T11:15:07.786Z,5.62
2023-03-31T11:16:08.669Z,5.62
2023-03-31T11:17:09.568Z,5.62
2023-03-31T11:18:10.380Z,5.62
2023-03-31T11:19:11.194Z,5.62
2023-03-31T11:20:12.048Z,5.62
2023-03-31T11:21:12.911Z,5.62
2023-03-31T11:22:13.706Z,5.62
2023-03-31T11:23:14.534Z,5.62
2023-03-31T11:24:15.368Z,0.00
2023-03-31T11:25:16.213Z,0.00
2023-03-31T11:26:17.036Z,0.00
2023-03-31T11:27:17.868Z,0.00
2023-03-31T11:28:18.678Z,0.00
2023-03-31T11:29:19.546Z,0.00
2023-03-31T11:30:20.353Z,0.00
2023-03-31T11:31:21.185Z,0.00
2023-03-31T11:32:22.009Z,5.62
2023-03-31T11:33:22.819Z,5.62
2023-03-31T11:34:23.645Z,5.62
2023-03-31T11:35:24.478Z,5.62
2023-03-31T11:36:25.299Z,5.62
2023-03-31T11:37:26.120Z,5.62
2023-03-31T11:38:26.951Z,5.62
2023-03-31T11:39:27.790Z,5.62
2023-03-31T11:40:28.618Z,5.62
2023-03-31T11:41:29.447Z,5.62
2023-03-31T11:42:30.305Z,5.62
2023-03-31T11:43:31.110Z,5.62
2023-03-31T11:44:31.953Z,0.00
2023-03-31T11:45:32.783Z,0.00
2023-03-31T11:46:33.640Z,0.00
2023-03-31T11:47:34.467Z,0.00
2023-03-31T11:48:35.281Z,0.00
2023-03-31T11:49:36.109Z,0.00
2023-03-31T11:50:36.960Z,0.00
2023-03-31T11:51:37.771Z,0.00
2023-03-31T11:52:38.596Z,0.00
2023-03-31T11:53:39.415Z,0.00
2023-03-31T11:54:40.233Z,0.00
2023-03-31T11:55:41.077Z,0.00
2023-03-31T11:56:41.914Z,0.00
2023-03-31T11:57:42.723Z,0.00
2023-03-31T11:58:43.541Z,0.00
2023-03-31T11:59:44.393Z,0.00
2023-03-31T12:00:45.200Z,0.00
2023-03-31T12:01:46.022Z,0.00
2023-03-31T12:02:46.874Z,0.00
2023-03-31T12:03:47.730Z,0.00
2023-03-31T12:04:48.511Z,0.00
2023-03-31T12:05:49.400Z,0.00
2023-03-31T12:06:50.187Z,0.00
2023-03-31T12:07:51.136Z,0.00
2023-03-31T12:08:51.946Z,0.00
2023-03-31T12:09:52.760Z,0.00
2023-03-31T12:10:53.600Z,5.62
2023-03-31T12:11:54.423Z,5.62
2023-03-31T12:12:55.288Z,5.62
2023-03-31T12:13:56.111Z,5.62
2023-03-31T12:14:56.929Z,5.62
2023-03-31T12:15:57.775Z,5.62
2023-03-31T12:16:58.564Z,5.62
2023-03-31T12:17:59.409Z,5.62
2023-03-31T12:19:00.209Z,5.62
2023-03-31T12:20:01.033Z,5.62
2023-03-31T12:21:01.866Z,0.00
2023-03-31T12:22:02.688Z,0.00
2023-03-31T12:23:03.508Z,0.00
2023-03-31T12:24:05.447Z,0.00
2023-03-31T12:25:04.912Z,0.00
2023-03-31T12:26:05.872Z,0.00
2023-03-31T12:27:06.728Z,0.00
2023-03-31T12:28:07.558Z,0.00
2023-03-31T12:29:08.374Z,0.00
2023-03-31T12:30:09.228Z,0.00
2023-03-31T12:31:10.072Z,0.00
2023-03-31T12:32:10.889Z,0.00
2023-03-31T12:33:11.728Z,0.00
2023-03-31T12:34:12.549Z,0.00
2023-03-31T12:35:13.372Z,0.00
2023-03-31T12:36:14.285Z,0.00
2023-03-31T12:37:15.060Z,0.00
2023-03-31T12:38:15.893Z,5.62
2023-03-31T12:39:16.712Z,5.62
2023-03-31T12:40:17.535Z,5.62
2023-03-31T12:41:18.367Z,5.62
2023-03-31T12:42:19.194Z,5.62
2023-03-31T12:43:20.021Z,5.62
2023-03-31T12:44:20.859Z,5.62
2023-03-31T12:45:21.698Z,5.62
2023-03-31T12:46:22.573Z,5.62
2023-03-31T12:47:23.427Z,5.62
2023-03-31T12:48:24.240Z,5.62
2023-03-31T12:49:25.023Z,5.62
2023-03-31T12:50:25.853Z,5.62
2023-03-31T12:51:26.683Z,5.62
2023-03-31T12:52:27.508Z,5.62
2023-03-31T12:53:28.329Z,5.62
2023-03-31T12:54:29.153Z,5.62
2023-03-31T12:55:29.971Z,5.62
2023-03-31T12:56:30.815Z,5.62
2023-03-31T12:57:31.694Z,5.62
2023-03-31T12:58:33.247Z,5.62
2023-03-31T12:59:33.097Z,5.62
2023-03-31T13:00:33.989Z,5.62
2023-03-31T13:01:34.949Z,5.62
2023-03-31T13:02:35.410Z,5.62
2023-03-31T13:03:36.226Z,5.62
2023-03-31T13:04:37.054Z,5.62
2023-03-31T13:05:37.891Z,5.62
2023-03-31T13:06:38.708Z,5.62
2023-03-31T13:07:39.540Z,5.62
2023-03-31T13:08:40.360Z,5.62
2023-03-31T13:09:41.190Z,5.62
2023-03-31T13:10:42.090Z,0.00
2023-03-31T13:11:42.888Z,0.00
2023-03-31T13:12:43.712Z,0.00
2023-03-31T13:14:46.257Z,0.00
2023-03-31T13:15:46.187Z,0.00
2023-03-31T13:16:47.029Z,0.00
2023-03-31T13:17:47.856Z,0.00
2023-03-31T13:18:48.637Z,0.00
2023-03-31T13:19:49.455Z,0.00
2023-03-31T13:20:50.351Z,0.00
2023-03-31T13:21:51.170Z,0.00
2023-03-31T13:22:51.997Z,0.00
2023-03-31T13:23:52.812Z,0.00
2023-03-31T13:24:53.636Z,0.00
2023-03-31T13:25:54.456Z,0.00
2023-03-31T13:26:55.420Z,0.00